createdAt,value
2022-09-17T00:01:24.938Z,15.70
2022-09-17T00:03:55.004Z,15.90
2022-09-17T00:06:24.881Z,16.00
2022-09-17T00:08:54.538Z,16.08
2022-09-17T00:11:26.145Z,15.93
2022-09-17T00:13:55.422Z,15.93
2022-09-17T00:16:29.239Z,16.17
2022-09-17T00:18:58.331Z,16.15
2022-09-17T00:21:27.122Z,16.30
2022-09-17T00:23:56.262Z,16.35
2022-09-17T00:26:24.835Z,16.00
2022-09-17T00:28:54.092Z,16.42
2022-09-17T00:31:23.300Z,16.00
2022-09-17T00:33:53.812Z,16.27
2022-09-17T00:36:23.053Z,16.42
2022-09-17T00:38:51.814Z,16.00
2022-09-17T00:41:20.365Z,16.35
2022-09-17T00:43:52.066Z,15.82
2022-09-17T00:46:28.914Z,15.65
2022-09-17T00:49:00.150Z,16.08
2022-09-17T00:51:33.985Z,15.90
2022-09-17T00:54:03.951Z,15.88
2022-09-17T00:56:36.093Z,16.20
2022-09-17T00:59:04.613Z,16.60
2022-09-17T01:01:33.306Z,15.63
2022-09-17T01:04:03.511Z,16.40
2022-09-17T01:06:35.712Z,16.30
2022-09-17T01:09:23.214Z,16.27
2022-09-17T01:12:12.759Z,16.33
2022-09-17T01:14:54.017Z,16.45
2022-09-17T01:17:29.352Z,16.50
2022-09-17T01:20:27.896Z,16.20
2022-09-17T01:23:10.339Z,16.25
2022-09-17T01:25:49.698Z,16.35
2022-09-17T01:28:42.825Z,16.35
2022-09-17T01:31:27.171Z,16.73
2022-09-17T01:34:02.880Z,16.50
2022-09-17T01:36:41.816Z,16.30
2022-09-17T01:39:19.621Z,16.08
2022-09-17T01:41:54.750Z,16.27
2022-09-17T01:44:28.500Z,15.73
2022-09-17T01:47:02.750Z,15.63
2022-09-17T01:49:32.814Z,15.88
2022-09-17T01:52:03.181Z,16.20
2022-09-17T01:54:37.141Z,15.90
2022-09-17T01:57:13.063Z,16.35
2022-09-17T01:59:44.259Z,16.10
2022-09-17T02:02:17.789Z,16.15
2022-09-17T02:04:53.401Z,15.98
2022-09-17T02:07:24.145Z,16.05
2022-09-17T02:09:59.407Z,16.10
2022-09-17T02:12:33.185Z,16.35
2022-09-17T02:15:04.440Z,15.88
2022-09-17T02:17:39.185Z,16.10
2022-09-17T02:20:08.453Z,16.23
2022-09-17T02:22:43.416Z,16.60
2022-09-17T02:25:19.633Z,16.50
2022-09-17T02:27:59.055Z,17.00
2022-09-17T02:30:27.141Z,15.85
2022-09-17T02:32:57.120Z,16.52
2022-09-17T02:35:25.553Z,16.48
2022-09-17T02:37:53.525Z,16.00
2022-09-17T02:40:28.481Z,16.70
2022-09-17T02:43:12.029Z,16.15
2022-09-17T02:45:50.730Z,16.70
2022-09-17T02:48:35.307Z,17.15
2022-09-17T02:51:26.354Z,17.63
2022-09-17T02:54:02.116Z,16.77
2022-09-17T02:56:39.022Z,16.88
2022-09-17T02:59:13.419Z,17.00
2022-09-17T03:01:44.500Z,16.63
2022-09-17T03:04:16.942Z,16.42
2022-09-17T03:06:47.389Z,16.45
2022-09-17T03:09:15.813Z,16.90
2022-09-17T03:11:44.125Z,17.45
2022-09-17T03:14:12.116Z,16.52
2022-09-17T03:16:40.250Z,16.80
2022-09-17T03:19:08.250Z,16.13
2022-09-17T03:21:37.598Z,16.50
2022-09-17T03:24:05.935Z,16.85
2022-09-17T03:26:33.979Z,16.45
2022-09-17T03:29:01.934Z,17.10
2022-09-17T03:31:30.321Z,16.40
2022-09-17T03:33:58.768Z,16.58
2022-09-17T03:36:27.074Z,16.70
2022-09-17T03:38:57.144Z,16.50
2022-09-17T03:41:25.689Z,16.70
2022-09-17T03:43:54.254Z,16.58
2022-09-17T03:46:22.429Z,16.90
2022-09-17T03:48:50.676Z,16.63
2022-09-17T03:51:18.677Z,16.13
2022-09-17T03:53:46.626Z,16.48
2022-09-17T03:56:16.248Z,17.20
2022-09-17T03:58:44.225Z,16.75
2022-09-17T04:01:12.590Z,16.85
2022-09-17T04:03:40.751Z,15.90
2022-09-17T04:06:09.006Z,15.95
2022-09-17T04:08:37.114Z,16.55
2022-09-17T04:11:05.185Z,16.30
2022-09-17T04:13:34.745Z,15.65
2022-09-17T04:16:03.534Z,16.08
2022-09-17T04:18:31.677Z,16.13
2022-09-17T04:21:00.201Z,16.05
2022-09-17T04:23:28.199Z,16.70
2022-09-17T04:25:56.282Z,16.23
2022-09-17T04:28:24.271Z,16.52
2022-09-17T04:30:53.791Z,16.63
2022-09-17T04:33:21.947Z,16.50
2022-09-17T04:35:50.274Z,16.60
2022-09-17T04:38:20.540Z,18.40
2022-09-17T04:40:48.647Z,16.52
2022-09-17T04:43:16.604Z,16.75
2022-09-17T04:45:47.148Z,16.35
2022-09-17T04:48:16.563Z,16.35
2022-09-17T04:50:44.941Z,16.50
2022-09-17T04:53:13.357Z,17.77
2022-09-17T04:55:41.364Z,17.20
2022-09-17T04:58:09.386Z,17.17
2022-09-17T05:00:38.455Z,18.52
2022-09-17T05:03:06.459Z,19.23
2022-09-17T05:05:35.855Z,18.15
2022-09-17T05:08:04.361Z,17.80
2022-09-17T05:10:32.350Z,17.10
2022-09-17T05:13:00.321Z,16.80
2022-09-17T05:15:28.884Z,17.73
2022-09-17T05:17:57.234Z,17.08
2022-09-17T05:20:25.236Z,16.60
2022-09-17T05:22:54.649Z,15.23
2022-09-17T05:25:24.892Z,13.52
2022-09-17T05:27:53.754Z,13.05
2022-09-17T05:30:22.235Z,13.45
2022-09-17T05:32:50.405Z,14.80
2022-09-17T05:35:18.559Z,14.50
2022-09-17T05:37:46.553Z,13.40
2022-09-17T05:40:16.809Z,13.63
2022-09-17T05:42:44.898Z,11.10
2022-09-17T05:45:12.947Z,11.93
2022-09-17T05:47:40.941Z,11.68
2022-09-17T05:50:09.600Z,10.93
2022-09-17T05:52:37.716Z,11.07
2022-09-17T05:55:06.381Z,10.32
2022-09-17T05:57:35.710Z,9.60
2022-09-17T06:00:04.844Z,10.25
2022-09-17T06:02:32.817Z,10.90
2022-09-17T06:05:01.913Z,11.00
2022-09-17T06:07:29.926Z,11.20
2022-09-17T06:09:57.994Z,11.60
2022-09-17T06:12:26.034Z,11.13
2022-09-17T06:14:57.416Z,11.10
2022-09-17T06:17:25.999Z,11.85
2022-09-17T06:19:54.210Z,12.90
2022-09-17T06:22:22.422Z,13.50
2022-09-17T06:24:50.445Z,14.10
2022-09-17T06:27:18.505Z,13.73
2022-09-17T06:29:46.485Z,14.35
2022-09-17T06:32:17.082Z,14.25
2022-09-17T06:34:45.148Z,14.18
2022-09-17T06:37:13.110Z,13.88
2022-09-17T06:39:41.178Z,12.48
2022-09-17T06:42:09.246Z,12.60
2022-09-17T06:44:37.252Z,12.18
2022-09-17T06:47:05.648Z,12.40
2022-09-17T06:49:35.002Z,13.73
2022-09-17T06:52:04.217Z,13.30
2022-09-17T06:54:32.259Z,14.35
2022-09-17T06:57:00.270Z,14.88
2022-09-17T06:59:28.365Z,14.10
2022-09-17T07:01:56.577Z,18.30
2022-09-17T07:04:24.694Z,47.28
2022-09-17T07:06:54.071Z,52.50
2022-09-17T07:09:22.027Z,52.53
2022-09-17T07:11:50.208Z,56.97
2022-09-17T07:14:19.172Z,58.83
2022-09-17T07:16:47.204Z,59.20
2022-09-17T07:19:15.243Z,53.67
2022-09-17T07:21:43.328Z,52.65
2022-09-17T07:24:12.670Z,53.30
2022-09-17T07:26:40.707Z,55.50
2022-09-17T07:29:09.029Z,34.88
2022-09-17T07:31:37.187Z,63.17
2022-09-17T07:34:05.300Z,68.50
2022-09-17T07:36:33.363Z,68.45
2022-09-17T07:39:01.609Z,170.73
2022-09-17T07:41:30.969Z,70.38
2022-09-17T07:43:59.219Z,74.70
2022-09-17T07:46:27.343Z,75.38
2022-09-17T07:48:55.329Z,73.75
2022-09-17T07:51:24.931Z,75.13
2022-09-17T07:53:53.553Z,77.75
2022-09-17T07:56:21.841Z,71.68
2022-09-17T07:58:51.718Z,66.80
2022-09-17T08:01:21.234Z,71.75
2022-09-17T08:03:50.773Z,72.15
2022-09-17T08:06:20.866Z,130.25
2022-09-17T08:08:49.532Z,68.28
2022-09-17T08:11:32.741Z,117.30
2022-09-17T08:14:07.985Z,61.70
2022-09-17T08:16:36.073Z,65.07
2022-09-17T08:19:04.130Z,69.80
2022-09-17T08:21:32.248Z,71.72
2022-09-17T08:24:00.278Z,164.02
2022-09-17T08:26:28.326Z,165.70
2022-09-17T08:28:57.225Z,76.40
2022-09-17T08:31:28.444Z,78.25
2022-09-17T08:33:56.828Z,83.80
2022-09-17T08:36:26.297Z,77.45
2022-09-17T08:38:58.643Z,54.90
2022-09-17T08:41:37.065Z,49.97
2022-09-17T08:44:16.686Z,48.70
2022-09-17T08:46:48.768Z,49.90
2022-09-17T08:49:26.420Z,49.75
2022-09-17T08:52:17.414Z,49.28
2022-09-17T08:54:51.937Z,50.03
2022-09-17T08:57:28.539Z,54.53
2022-09-17T09:00:03.017Z,116.88
2022-09-17T09:02:47.061Z,113.22
2022-09-17T09:05:17.873Z,176.25
2022-09-17T09:07:50.072Z,178.35
2022-09-17T09:10:22.463Z,189.50
2022-09-17T09:12:52.426Z,76.88
2022-09-17T09:15:29.460Z,82.03
2022-09-17T09:18:03.152Z,79.40
2022-09-17T09:20:39.239Z,84.97
2022-09-17T09:23:16.530Z,81.75
2022-09-17T09:25:56.065Z,174.88
2022-09-17T09:28:50.334Z,120.85
2022-09-17T09:31:35.715Z,188.90
2022-09-17T09:34:06.200Z,125.60
2022-09-17T09:36:34.774Z,138.50
2022-09-17T09:39:08.837Z,81.18
2022-09-17T09:41:44.237Z,87.40
2022-09-17T09:44:14.451Z,85.47
2022-09-17T09:47:15.573Z,85.18
2022-09-17T09:50:02.579Z,163.40
2022-09-17T09:52:45.675Z,83.72
2022-09-17T09:55:27.956Z,87.05
2022-09-17T09:58:04.283Z,85.68
2022-09-17T10:00:36.786Z,205.20
2022-09-17T10:03:12.217Z,188.10
2022-09-17T10:05:41.915Z,79.63
2022-09-17T10:08:13.980Z,85.95
2022-09-17T10:10:56.664Z,85.20
2022-09-17T10:13:25.050Z,85.03
2022-09-17T10:15:55.158Z,118.72
2022-09-17T10:18:24.771Z,85.28
2022-09-17T10:21:02.084Z,86.00
2022-09-17T10:23:33.977Z,87.50
2022-09-17T10:26:02.091Z,89.03
2022-09-17T10:28:34.990Z,155.27
2022-09-17T10:31:08.996Z,87.72
2022-09-17T10:33:41.140Z,82.55
2022-09-17T10:36:14.806Z,89.25
2022-09-17T10:38:44.485Z,90.68
2022-09-17T10:41:21.822Z,91.38
2022-09-17T10:43:50.706Z,80.90
2022-09-17T10:46:27.237Z,89.82
2022-09-17T10:49:06.416Z,86.05
2022-09-17T10:51:36.153Z,83.50
2022-09-17T10:54:19.493Z,78.53
2022-09-17T10:56:52.550Z,71.28
2022-09-17T10:59:46.989Z,71.22
2022-09-17T11:02:42.021Z,70.68
2022-09-17T11:05:27.533Z,70.57
2022-09-17T11:08:05.642Z,72.43
2022-09-17T11:10:39.533Z,72.03
2022-09-17T11:13:18.528Z,66.68
2022-09-17T11:16:01.954Z,77.75
2022-09-17T11:18:51.306Z,68.97
2022-09-17T11:21:42.847Z,75.32
2022-09-17T11:24:48.741Z,75.28
2022-09-17T11:27:39.944Z,72.70
2022-09-17T11:30:17.693Z,73.82
2022-09-17T11:33:10.555Z,83.10
2022-09-17T11:35:42.256Z,71.05
2022-09-17T11:38:16.720Z,74.32
2022-09-17T11:40:50.678Z,78.30
2022-09-17T11:43:27.882Z,69.60
2022-09-17T11:46:04.869Z,69.20
2022-09-17T11:48:40.561Z,74.47
2022-09-17T11:51:24.407Z,78.07
2022-09-17T11:53:56.999Z,79.28
2022-09-17T11:56:31.412Z,79.40
2022-09-17T11:59:04.747Z,79.35
2022-09-17T12:01:38.182Z,80.22
2022-09-17T12:04:30.697Z,79.32
2022-09-17T12:07:04.498Z,80.38
2022-09-17T12:09:38.081Z,78.85
2022-09-17T12:12:31.899Z,79.40
2022-09-17T12:15:07.784Z,76.10
2022-09-17T12:17:40.092Z,76.60
2022-09-17T12:20:17.027Z,77.43
2022-09-17T12:22:50.053Z,74.68
2022-09-17T12:25:18.139Z,76.90
2022-09-17T12:27:55.238Z,75.82
2022-09-17T12:30:26.423Z,67.40
2022-09-17T12:33:18.677Z,78.15
2022-09-17T12:36:10.349Z,78.63
2022-09-17T12:39:02.654Z,78.22
2022-09-17T12:41:40.513Z,79.15
2022-09-17T12:44:26.775Z,79.22
2022-09-17T12:47:09.100Z,77.57
2022-09-17T12:49:56.337Z,71.70
2022-09-17T12:52:38.195Z,71.65
2022-09-17T12:55:24.918Z,70.57
2022-09-17T12:58:01.244Z,75.82
2022-09-17T13:00:34.251Z,76.85
2022-09-17T13:03:07.466Z,80.47
2022-09-17T13:06:05.824Z,79.28
2022-09-17T13:09:06.862Z,79.25
2022-09-17T13:12:10.144Z,79.63
2022-09-17T13:14:58.792Z,79.97
2022-09-17T13:17:36.011Z,79.40
2022-09-17T13:20:15.777Z,71.43
2022-09-17T13:22:46.812Z,79.47
2022-09-17T13:25:17.820Z,80.57
2022-09-17T13:27:46.914Z,80.03
2022-09-17T13:30:17.143Z,78.88
2022-09-17T13:32:54.086Z,80.03
2022-09-17T13:35:50.830Z,78.68
2022-09-17T13:38:23.685Z,69.97
2022-09-17T13:40:53.024Z,74.95
2022-09-17T13:43:27.111Z,76.85
2022-09-17T13:46:12.419Z,73.78
2022-09-17T13:48:55.044Z,68.10
2022-09-17T13:51:59.687Z,73.03
2022-09-17T13:54:39.746Z,66.18
2022-09-17T13:57:12.203Z,64.95
2022-09-17T13:59:52.714Z,68.93
2022-09-17T14:02:33.960Z,65.50
2022-09-17T14:05:26.445Z,66.28
2022-09-17T14:08:15.962Z,66.18
2022-09-17T14:10:45.156Z,67.53
2022-09-17T14:13:42.493Z,65.95
2022-09-17T14:16:35.837Z,70.22
2022-09-17T14:19:22.599Z,72.47
2022-09-17T14:22:03.948Z,71.95
2022-09-17T14:24:37.792Z,74.88
2022-09-17T14:27:22.617Z,73.82
2022-09-17T14:30:19.792Z,76.13
2022-09-17T14:32:59.263Z,77.25
2022-09-17T14:35:33.014Z,76.82
2022-09-17T14:38:06.838Z,75.68
2022-09-17T14:40:35.454Z,74.07
2022-09-17T14:43:04.589Z,75.38
2022-09-17T14:45:34.457Z,73.43
2022-09-17T14:48:27.296Z,75.32
2022-09-17T14:51:12.176Z,74.80
2022-09-17T14:53:41.489Z,74.63
2022-09-17T14:56:12.489Z,73.47
2022-09-17T14:58:44.839Z,74.53
2022-09-17T15:01:24.101Z,16.30
2022-09-17T15:04:08.804Z,19.30
2022-09-17T15:06:36.860Z,16.80
2022-09-17T15:09:06.233Z,12.95
2022-09-17T15:11:41.777Z,16.85
2022-09-17T15:14:16.536Z,17.27
2022-09-17T15:16:49.677Z,16.98
2022-09-17T15:19:23.682Z,17.80
2022-09-17T15:21:55.466Z,44.58
2022-09-17T15:24:34.116Z,165.48
2022-09-17T15:27:07.975Z,53.50
2022-09-17T15:29:37.646Z,60.80
2022-09-17T15:32:07.181Z,106.53
2022-09-17T15:34:35.138Z,94.65
2022-09-17T15:37:07.419Z,97.35
2022-09-17T15:39:42.359Z,176.20
2022-09-17T15:42:20.414Z,87.05
2022-09-17T15:44:48.442Z,76.97
2022-09-17T15:47:35.929Z,109.28
2022-09-17T15:50:19.252Z,67.70
2022-09-17T15:52:47.851Z,72.22
2022-09-17T15:55:37.111Z,75.15
2022-09-17T15:58:20.432Z,73.30
2022-09-17T16:00:48.783Z,73.35
2022-09-17T16:04:06.905Z,75.78
2022-09-17T16:06:39.210Z,76.22
2022-09-17T16:09:37.908Z,75.90
2022-09-17T16:12:07.631Z,79.15
2022-09-17T16:14:35.599Z,77.88
2022-09-17T16:17:19.343Z,78.68
2022-09-17T16:19:47.382Z,16.65
2022-09-17T16:22:15.371Z,16.42
2022-09-17T16:24:43.604Z,16.60
2022-09-17T16:27:19.209Z,16.30
2022-09-17T16:29:47.387Z,16.75
2022-09-17T16:32:15.453Z,16.73
2022-09-17T16:34:43.437Z,17.10
2022-09-17T16:37:13.635Z,16.55
2022-09-17T16:39:42.116Z,17.48
2022-09-17T16:42:10.129Z,16.75
2022-09-17T16:44:39.472Z,16.90
2022-09-17T16:47:07.578Z,16.60
2022-09-17T16:49:35.669Z,16.73
2022-09-17T16:52:03.837Z,17.20
2022-09-17T16:54:31.854Z,16.85
2022-09-17T16:57:01.103Z,17.02
2022-09-17T16:59:29.108Z,16.90
2022-09-17T17:01:58.437Z,16.65
2022-09-17T17:04:26.435Z,16.55
2022-09-17T17:06:54.440Z,17.50
2022-09-17T17:09:22.412Z,16.65
2022-09-17T17:11:51.583Z,18.75
2022-09-17T17:14:19.653Z,17.08
2022-09-17T17:16:47.662Z,17.33
2022-09-17T17:19:17.749Z,17.20
2022-09-17T17:21:47.253Z,16.77
2022-09-17T17:24:15.431Z,18.27
2022-09-17T17:26:43.516Z,17.85
2022-09-17T17:29:11.608Z,17.83
2022-09-17T17:31:39.635Z,19.88
2022-09-17T17:34:07.808Z,18.35
2022-09-17T17:36:37.137Z,17.85
2022-09-17T17:39:05.298Z,18.13
2022-09-17T17:41:33.335Z,18.20
2022-09-17T17:44:01.274Z,18.38
2022-09-17T17:46:29.338Z,18.17
2022-09-17T17:48:58.171Z,18.20
2022-09-17T17:51:27.284Z,18.00
2022-09-17T17:53:56.568Z,17.90
2022-09-17T17:56:24.549Z,17.60
2022-09-17T17:58:56.508Z,17.88
2022-09-17T18:01:27.279Z,18.30
2022-09-17T18:03:58.080Z,17.83
2022-09-17T18:06:26.761Z,18.20
2022-09-17T18:08:56.417Z,17.90
2022-09-17T18:11:25.355Z,17.70
2022-09-17T18:13:54.845Z,17.88
2022-09-17T18:16:24.024Z,18.60
2022-09-17T18:18:52.296Z,19.02
2022-09-17T18:21:22.490Z,17.75
2022-09-17T18:23:51.350Z,17.98
2022-09-17T18:26:23.169Z,17.63
2022-09-17T18:28:52.049Z,17.90
2022-09-17T18:31:23.764Z,17.58
2022-09-17T18:33:55.417Z,17.75
2022-09-17T18:36:23.473Z,17.98
2022-09-17T18:38:54.235Z,18.40
2022-09-17T18:41:23.686Z,17.52
2022-09-17T18:43:51.817Z,18.13
2022-09-17T18:46:19.936Z,18.13
2022-09-17T18:48:52.376Z,18.25
2022-09-17T18:51:20.796Z,18.23
2022-09-17T18:53:51.598Z,17.52
2022-09-17T18:56:21.508Z,18.13
2022-09-17T18:58:53.813Z,17.50
2022-09-17T19:01:24.898Z,17.92
2022-09-17T19:03:52.976Z,17.55
2022-09-17T19:06:20.958Z,17.70
2022-09-17T19:08:50.049Z,17.65
2022-09-17T19:11:18.041Z,17.98
2022-09-17T19:13:47.512Z,18.55
2022-09-17T19:16:17.401Z,18.15
2022-09-17T19:18:45.421Z,18.08
2022-09-17T19:21:17.673Z,18.38
2022-09-17T19:23:47.151Z,18.30
2022-09-17T19:26:17.308Z,17.50
2022-09-17T19:28:45.535Z,17.55
2022-09-17T19:31:15.528Z,17.77
2022-09-17T19:33:45.394Z,18.25
2022-09-17T19:36:16.239Z,18.45
2022-09-17T19:38:45.080Z,18.48
2022-09-17T19:41:14.923Z,18.48
2022-09-17T19:43:43.555Z,18.30
2022-09-17T19:46:13.855Z,18.25
2022-09-17T19:48:47.119Z,19.25
2022-09-17T19:51:15.622Z,18.23
2022-09-17T19:53:44.133Z,18.33
2022-09-17T19:56:14.048Z,33.65
2022-09-17T19:58:42.189Z,18.30
2022-09-17T20:01:10.640Z,18.20
2022-09-17T20:03:40.118Z,18.08
2022-09-17T20:06:11.608Z,18.17
2022-09-17T20:08:47.053Z,17.67
2022-09-17T20:11:16.500Z,18.40
2022-09-17T20:13:44.802Z,18.58
2022-09-17T20:16:15.780Z,17.92
2022-09-17T20:18:44.855Z,18.23
2022-09-17T20:21:16.378Z,18.65
2022-09-17T20:23:44.941Z,18.08
2022-09-17T20:26:14.137Z,18.25
2022-09-17T20:28:42.258Z,18.70
2022-09-17T20:31:12.925Z,18.52
2022-09-17T20:33:41.287Z,18.63
2022-09-17T20:36:14.135Z,18.42
2022-09-17T20:41:31.664Z,17.55
2022-09-17T20:44:00.024Z,17.77
2022-09-17T20:46:29.532Z,17.85
2022-09-17T20:48:58.675Z,17.77
2022-09-17T20:51:30.004Z,17.70
2022-09-17T20:53:58.711Z,17.95
2022-09-17T20:56:28.658Z,17.75
2022-09-17T20:59:03.989Z,17.83
2022-09-17T21:01:34.450Z,17.47
2022-09-17T21:04:03.899Z,17.60
2022-09-17T21:06:35.292Z,17.65
2022-09-17T21:09:03.914Z,17.50
2022-09-17T21:11:32.671Z,16.65
2022-09-17T21:14:01.390Z,16.92
2022-09-17T21:16:30.186Z,17.05
2022-09-17T21:18:59.546Z,17.20
2022-09-17T21:21:28.288Z,17.27
2022-09-17T21:24:01.371Z,17.40
2022-09-17T21:26:29.657Z,17.00
2022-09-17T21:28:58.633Z,17.50
2022-09-17T21:31:32.315Z,17.43
2022-09-17T21:34:02.900Z,17.13
2022-09-17T21:36:32.726Z,18.02
2022-09-17T21:39:04.493Z,17.70
2022-09-17T21:41:33.169Z,17.40
2022-09-17T21:44:01.419Z,17.60
2022-09-17T21:46:33.214Z,18.80
2022-09-17T21:49:03.156Z,18.07
2022-09-17T21:51:34.008Z,17.83
2022-09-17T21:54:05.486Z,18.50
2022-09-17T21:56:33.790Z,18.30
2022-09-17T21:59:03.176Z,18.13
2022-09-17T22:01:33.046Z,18.40
2022-09-17T22:04:02.098Z,18.33
2022-09-17T22:06:32.705Z,17.53
2022-09-17T22:09:04.393Z,16.93
2022-09-17T22:11:34.842Z,17.50
2022-09-17T22:14:08.835Z,17.13
2022-09-17T22:16:39.218Z,17.20
2022-09-17T22:19:08.732Z,18.27
2022-09-17T22:21:38.417Z,17.50
2022-09-17T22:24:09.256Z,17.23
2022-09-17T22:26:39.051Z,17.50
2022-09-17T22:29:10.490Z,17.70
2022-09-17T22:31:38.609Z,17.50
2022-09-17T22:34:09.185Z,17.70
2022-09-17T22:36:37.569Z,17.47
2022-09-17T22:39:08.311Z,17.07
2022-09-17T22:41:38.305Z,17.60
2022-09-17T22:44:08.469Z,17.40
2022-09-17T22:46:39.304Z,17.20
2022-09-17T22:49:08.228Z,17.00
2022-09-17T22:51:36.212Z,16.20
2022-09-17T22:54:05.828Z,16.90
2022-09-17T22:56:36.181Z,17.60
2022-09-17T22:59:05.025Z,17.00
2022-09-17T23:01:36.191Z,17.10
2022-09-17T23:04:05.813Z,17.20
2022-09-17T23:06:35.520Z,17.07
2022-09-17T23:09:04.040Z,16.70
2022-09-17T23:11:34.989Z,16.80
2022-09-17T23:14:09.629Z,16.50
2022-09-17T23:16:39.758Z,16.43
2022-09-17T23:19:08.231Z,16.80
2022-09-17T23:21:36.320Z,16.90
2022-09-17T23:24:04.621Z,16.87
2022-09-17T23:26:34.310Z,16.73
2022-09-17T23:29:11.063Z,16.70
2022-09-17T23:31:39.280Z,16.57
2022-09-17T23:34:08.013Z,16.40
2022-09-17T23:36:38.047Z,16.93
2022-09-17T23:39:08.043Z,16.90
2022-09-17T23:41:40.009Z,16.60
2022-09-17T23:44:14.851Z,16.70
2022-09-17T23:46:45.180Z,17.20
2022-09-17T23:49:14.936Z,17.00
2022-09-17T23:51:43.270Z,16.53
2022-09-17T23:54:11.279Z,16.60
2022-09-17T23:56:41.195Z,16.23
2022-09-17T23:59:10.377Z,16.33
